Aeroporto :
LOGIN :

Iscrizione | Disclaimer

   EN    FR    IT 

 










Sommario :    VFR   VFR Marginale   IFR   IFR Intensivo   IFR Molto Intensivo
Visibilità : 
Base nubi : 
>= 8 km
>= 3000ft
5 / 8 km
1000 / 3000 ft
1500m / 5 km
500 / 1000 ft
800 / 1500m
200 / 500 ft
< 800m
< 200 ft
Simboli :   Temporali  Nebbia  Neve Forte  Precipitazioni Forti  Vento > 20 kt
SIGMETs :   Varie  Temporali  Ghiacco  Turbolenza  Onda orograficha  Ceneri Vulcaniche






- Altitudine del aeroporto : 20 ft


EBFN - Koksijde

ULTIMO METAR :
  • 271725Z AUTO 33020G30KT 9999 SCT031/// SCT040/// 06/M01 Q1005 BLU

METARs OBSOLETI :
  • 271655Z AUTO 32018G38KT 9999 BKN027/// 06/00 Q1004 BLU
  • 271625Z AUTO 33019KT 9999 BKN029/// 06/01 Q1004 BLU
  • 271622Z AUTO 33020G32KT 9999 BKN027/// 06/01 Q1004 BLU
  • 271555Z AUTO 33018KT 9999 OVC022/// 05/01 Q1002 RESHRA WHT WHT BECMG BLU
  • 271455Z 33020G30KT 9999 SCT016 BKN022 05/02 Q1000 RESHRA WHT WHT TEMPO GRN

TAF TAF EBFN
Valido dal 27 a 13 ore il 27 a 22 ore UTC


271141Z 2713/2722 06008KT 5000 -RA SCT007 BKN012
TEMPO 2113/2714 VRB03KT 3000 -RASN SCT003 OVC006
TEMPO 2713/2714 1000 RASN SCT001 OVC003
BECMG 2714/2716 33018G30KT 9999 FEW010 SCT020
BECMG 2716/2718 FEW025



MetMap, La meteo Aeronautica in un colpo d'occhio ! - Copyright ORBIFLY Dicembre 2007 - Disclaimer

ORBIFLY MET'MAP TEAM :

Programmazione e sviluppo : Alexandra Zaïnal
Concezione : Baudouin d'Aumeries
Aiuto per la programmazione : Marc-Olivier Méhu
Supporto tecnico e logistico : Manuel Goepfert
Aiuto per la traduzione : Arnaldo La Scala

Contatto : metmap@orbifly.com




FONTI E CREDITI :

   NOAA